SBGR/GRU METAR and TAF weather

Enter ICAO airport designator
Station Type Date Time Source
SBGR METAR 2021/03/08 11:00 UTC NOAA

SBGR 081100Z 12003KT 9999 SCT007 20/19 Q1016


Station Type Date Time Source
SBGR Decoded METAR 2021/03/08 11:00 UTC NOAA

Guarulhos Civ / Mil , Brazil (SBGR) 23-26S 046-28W
Mar 08, 2021 - 06:00 AM EST / 2021.03.08 1100 UTC
Wind: from the ESE (120 degrees) at 3 MPH (3 KT):0
Visibility: greater than 7 mile(s):0
Sky conditions: partly cloudy
Temperature: 68 F (20 C)
Dew Point: 66 F (19 C)
Relative Humidity: 93%
Pressure (altimeter): 30.00 in. Hg (1016 hPa)
ob: SBGR 081100Z 12003KT 9999 SCT007 20/19 Q1016
cycle: 11

Station Type Date Time Source
SBGR TAF 2021/03/08 12:45 UTC NOAA

TAF TAF SBGR 080940Z 0812/0918 08007KT 8000 BKN011 TN18/0907Z TX28/0917Z
BECMG 0813/0815 BKN020
BECMG 0815/0817 22007KT
TEMPO 0817/0820 TSRA BKN020 FEW035CB
BECMG 0820/0822 16005KT
BECMG 0822/0824 12004KT BKN010
BECMG 0903/0905 09003KT
BECMG 0913/0915 07006KT SCT025
BECMG 0915/0917 29007KT
RMK PGM

Example: see airport list